CST,Max TemperatureF,Mean TemperatureF,Min TemperatureF,Max Dew PointF,MeanDew PointF,Min DewpointF,Max Humidity, Mean Humidity, Min Humidity, Max Sea Level PressureIn, Mean Sea Level PressureIn, Min Sea Level PressureIn, Max VisibilityMiles, Mean VisibilityMiles, Min VisibilityMiles, Max Wind SpeedMPH, Mean Wind SpeedMPH, Max Gust SpeedMPH,PrecipitationIn, CloudCover, Events, WindDirDegrees
2012-1-1,55,45,34,33,24,17,70,46,22,30.61,30.46,30.14,10,10,10,23,10,30,0.00,0,,307
2012-1-2,45,35,24,24,11,3,59,39,18,30.77,30.66,30.56,10,10,10,17,8,21,0.00,0,,316
2012-1-3,55,38,21,25,18,9,77,51,24,30.57,30.34,30.14,10,10,10,22,12,28,0.00,0,,165
2012-1-4,63,47,31,30,27,24,78,51,23,30.33,30.25,30.13,10,10,10,17,5,22,0.00,0,,288
2012-1-5,68,50,31,31,28,26,85,53,21,30.27,30.12,29.95,10,10,10,16,8,21,0.00,0,,191
2012-1-6,69,55,40,39,35,30,70,50,30,29.99,29.88,29.77,10,10,10,17,10,22,0.00,0,,187
2012-1-7,58,47,36,31,26,24,70,49,28,30.13,30.07,29.99,10,10,10,16,9,22,0.00,2,,11
2012-1-8,53,43,33,30,28,26,70,56,41,30.25,30.17,30.11,10,10,10,14,8,18,0.00,5,,357
2012-1-9,54,40,26,31,27,22,92,60,28,30.29,30.21,30.12,10,10,8,16,7,20,0.00,1,,354
2012-1-10,51,41,30,35,29,26,85,64,42,30.10,29.93,29.76,10,10,10,14,5,16,0.00,5,,330
2012-1-11,61,45,29,35,30,23,96,64,32,30.05,29.82,29.64,10,8,1,33,12,43,0.02,4,Snow,305
2012-1-12,35,28,21,19,9,0,69,50,31,30.17,30.12,30.05,10,10,10,25,15,36,0.00,1,,297
2012-1-13,48,34,20,19,9,0,52,36,19,30.25,30.17,30.10,10,10,10,13,6,16,0.00,1,,233
2012-1-14,55,43,31,24,21,19,61,44,26,30.28,30.20,30.05,10,10,10,20,7,25,0.00,0,,278
2012-1-15,64,48,32,44,28,21,66,43,20,30.24,30.07,29.88,10,10,10,31,17,39,0.00,0,,162
2012-1-16,72,64,56,58,52,45,78,63,47,29.86,29.76,29.67,10,10,10,30,20,40,0.00,1,,190
2012-1-17,66,44,22,56,21,14,78,58,37,30.43,30.21,29.68,10,10,10,30,14,37,0.00,0,,329
2012-1-18,45,31,17,24,16,12,77,53,28,30.41,30.20,29.95,10,10,10,16,7,18,0.00,0,,175
2012-1-19,54,41,28,30,26,21,85,62,38,29.98,29.91,29.81,10,10,10,15,7,17,0.00,0,,19
2012-1-20,41,32,23,34,26,18,88,72,56,30.09,29.84,29.73,10,7,2,24,9,29,T,6,,338
2012-1-21,43,31,18,36,20,10,76,60,44,30.19,30.02,29.76,10,10,7,20,9,24,0.00,2,,73
2012-1-22,71,57,42,52,39,20,89,52,15,29.83,29.59,29.38,10,8,4,35,19,45,0.00,6,,189
2012-1-23,59,46,32,33,24,16,75,48,20,30.07,30.01,29.86,10,10,10,14,7,18,0.00,0,,263
2012-1-24,65,48,30,41,25,21,69,45,20,30.15,30.08,30.02,10,10,4,23,8,29,0.07,3,Rain,133
2012-1-25,49,45,41,43,42,39,96,86,76,30.12,30.00,29.89,10,9,3,14,8,18,0.52,7,Rain,28
2012-1-26,62,51,39,41,32,17,93,58,23,29.98,29.92,29.86,10,10,9,29,10,36,0.00,4,,339
2012-1-27,64,47,30,37,29,21,78,54,30,30.26,29.96,29.80,10,10,10,32,11,38,0.00,1,,175
2012-1-28,51,39,27,26,19,14,75,49,22,30.50,30.40,30.29,10,10,10,18,7,22,0.00,0,,271
2012-1-29,61,47,33,29,24,18,61,43,24,30.37,30.29,30.20,10,10,10,16,9,24,0.00,0,,194
2012-1-30,67,54,41,51,37,27,72,56,40,30.18,30.05,29.94,10,10,10,26,16,33,0.00,0,,174
2012-1-31,72,59,45,54,50,40,80,61,41,30.06,29.94,29.88,10,10,10,30,13,37,0.00,5,,203